sensor_id;sensor_type;location;lat;lon;timestamp;P1;durP1;ratioP1;P2;durP2;ratioP2
71648;SDS011;70112;45.624;11.760;2023-06-14T00:01:19;7.20;;;5.10;;
71648;SDS011;70112;45.624;11.760;2023-06-14T00:03:47;5.30;;;4.80;;
71648;SDS011;70112;45.624;11.760;2023-06-14T00:06:13;6.00;;;5.40;;
71648;SDS011;70112;45.624;11.760;2023-06-14T00:08:39;5.60;;;5.10;;
71648;SDS011;70112;45.624;11.760;2023-06-14T00:11:06;6.20;;;5.60;;
71648;SDS011;70112;45.624;11.760;2023-06-14T00:13:33;8.60;;;5.50;;
71648;SDS011;70112;45.624;11.760;2023-06-14T00:15:58;6.80;;;4.90;;
71648;SDS011;70112;45.624;11.760;2023-06-14T00:18:24;8.50;;;5.00;;
71648;SDS011;70112;45.624;11.760;2023-06-14T00:20:51;5.80;;;5.30;;
71648;SDS011;70112;45.624;11.760;2023-06-14T00:23:17;8.20;;;5.50;;
71648;SDS011;70112;45.624;11.760;2023-06-14T00:25:43;7.00;;;5.30;;
71648;SDS011;70112;45.624;11.760;2023-06-14T00:28:09;6.70;;;5.20;;
71648;SDS011;70112;45.624;11.760;2023-06-14T00:30:34;5.90;;;5.00;;
71648;SDS011;70112;45.624;11.760;2023-06-14T00:33:00;5.60;;;4.80;;
71648;SDS011;70112;45.624;11.760;2023-06-14T00:35:26;8.40;;;5.20;;
71648;SDS011;70112;45.624;11.760;2023-06-14T00:37:51;5.90;;;5.30;;
71648;SDS011;70112;45.624;11.760;2023-06-14T00:40:17;5.50;;;5.00;;
71648;SDS011;70112;45.624;11.760;2023-06-14T00:42:42;5.40;;;4.90;;
71648;SDS011;70112;45.624;11.760;2023-06-14T00:45:08;7.60;;;4.90;;
71648;SDS011;70112;45.624;11.760;2023-06-14T00:47:35;6.70;;;5.20;;
71648;SDS011;70112;45.624;11.760;2023-06-14T00:50:04;6.70;;;5.60;;
71648;SDS011;70112;45.624;11.760;2023-06-14T00:52:32;6.60;;;6.00;;
71648;SDS011;70112;45.624;11.760;2023-06-14T00:54:57;8.20;;;6.40;;
71648;SDS011;70112;45.624;11.760;2023-06-14T00:57:23;6.00;;;5.40;;
71648;SDS011;70112;45.624;11.760;2023-06-14T00:59:49;6.20;;;5.60;;
71648;SDS011;70112;45.624;11.760;2023-06-14T01:02:16;7.00;;;6.30;;
71648;SDS011;70112;45.624;11.760;2023-06-14T01:04:46;7.60;;;6.80;;
71648;SDS011;70112;45.624;11.760;2023-06-14T01:15:34;8.10;;;6.50;;
71648;SDS011;70112;45.624;11.760;2023-06-14T01:18:00;8.30;;;6.30;;
71648;SDS011;70112;45.624;11.760;2023-06-14T01:20:37;7.50;;;6.80;;
71648;SDS011;70112;45.624;11.760;2023-06-14T01:23:03;6.70;;;6.10;;
71648;SDS011;70112;45.624;11.760;2023-06-14T01:25:28;6.80;;;6.10;;
71648;SDS011;70112;45.624;11.760;2023-06-14T01:28:03;7.90;;;6.80;;
71648;SDS011;70112;45.624;11.760;2023-06-14T01:30:36;7.30;;;6.40;;
71648;SDS011;70112;45.624;11.760;2023-06-14T01:33:04;7.50;;;6.20;;
71648;SDS011;70112;45.624;11.760;2023-06-14T01:35:31;11.10;;;6.20;;
71648;SDS011;70112;45.624;11.760;2023-06-14T01:37:57;6.90;;;6.20;;
71648;SDS011;70112;45.624;11.760;2023-06-14T01:40:23;7.00;;;6.40;;
71648;SDS011;70112;45.624;11.760;2023-06-14T01:42:50;8.00;;;7.30;;
71648;SDS011;70112;45.624;11.760;2023-06-14T01:45:18;7.80;;;7.00;;
71648;SDS011;70112;45.624;11.760;2023-06-14T01:47:45;7.70;;;6.80;;
71648;SDS011;70112;45.624;11.760;2023-06-14T01:50:11;7.60;;;6.90;;
71648;SDS011;70112;45.624;11.760;2023-06-14T01:52:37;7.20;;;6.10;;
71648;SDS011;70112;45.624;11.760;2023-06-14T01:55:04;8.20;;;6.90;;
71648;SDS011;70112;45.624;11.760;2023-06-14T01:57:31;10.10;;;6.90;;
71648;SDS011;70112;45.624;11.760;2023-06-14T01:59:57;7.60;;;6.90;;
71648;SDS011;70112;45.624;11.760;2023-06-14T02:02:22;7.40;;;6.60;;
71648;SDS011;70112;45.624;11.760;2023-06-14T02:04:48;8.70;;;7.20;;
71648;SDS011;70112;45.624;11.760;2023-06-14T02:07:14;7.20;;;6.60;;
71648;SDS011;70112;45.624;11.760;2023-06-14T02:09:42;11.70;;;6.40;;
71648;SDS011;70112;45.624;11.760;2023-06-14T02:12:08;8.60;;;6.70;;
71648;SDS011;70112;45.624;11.760;2023-06-14T02:14:35;7.10;;;6.50;;
71648;SDS011;70112;45.624;11.760;2023-06-14T02:17:00;7.40;;;6.70;;
71648;SDS011;70112;45.624;11.760;2023-06-14T02:19:26;7.40;;;6.60;;
71648;SDS011;70112;45.624;11.760;2023-06-14T02:21:52;8.00;;;7.10;;
71648;SDS011;70112;45.624;11.760;2023-06-14T02:24:18;9.50;;;7.30;;
71648;SDS011;70112;45.624;11.760;2023-06-14T02:26:43;7.50;;;6.80;;
71648;SDS011;70112;45.624;11.760;2023-06-14T02:29:09;9.50;;;7.50;;
71648;SDS011;70112;45.624;11.760;2023-06-14T02:31:37;10.80;;;7.30;;
71648;SDS011;70112;45.624;11.760;2023-06-14T02:34:03;8.90;;;5.80;;
71648;SDS011;70112;45.624;11.760;2023-06-14T02:36:28;12.30;;;6.80;;
71648;SDS011;70112;45.624;11.760;2023-06-14T02:38:57;7.10;;;6.20;;
71648;SDS011;70112;45.624;11.760;2023-06-14T02:41:26;7.40;;;6.40;;
71648;SDS011;70112;45.624;11.760;2023-06-14T02:43:52;8.90;;;6.40;;
71648;SDS011;70112;45.624;11.760;2023-06-14T02:46:18;7.10;;;6.40;;
71648;SDS011;70112;45.624;11.760;2023-06-14T02:48:44;9.50;;;6.50;;
71648;SDS011;70112;45.624;11.760;2023-06-14T02:51:10;8.40;;;5.90;;
71648;SDS011;70112;45.624;11.760;2023-06-14T02:53:36;9.30;;;6.00;;
71648;SDS011;70112;45.624;11.760;2023-06-14T02:56:02;9.30;;;5.80;;
71648;SDS011;70112;45.624;11.760;2023-06-14T02:58:29;7.80;;;6.10;;
71648;SDS011;70112;45.624;11.760;2023-06-14T03:00:55;7.40;;;6.60;;
71648;SDS011;70112;45.624;11.760;2023-06-14T03:03:21;7.30;;;6.60;;
71648;SDS011;70112;45.624;11.760;2023-06-14T03:05:47;9.10;;;7.10;;
71648;SDS011;70112;45.624;11.760;2023-06-14T03:08:17;7.10;;;6.20;;
71648;SDS011;70112;45.624;11.760;2023-06-14T03:10:47;10.80;;;6.20;;
71648;SDS011;70112;45.624;11.760;2023-06-14T03:13:13;8.60;;;6.20;;
71648;SDS011;70112;45.624;11.760;2023-06-14T03:15:42;7.40;;;6.70;;
71648;SDS011;70112;45.624;11.760;2023-06-14T03:18:09;7.10;;;6.40;;
71648;SDS011;70112;45.624;11.760;2023-06-14T03:20:35;10.30;;;6.50;;
71648;SDS011;70112;45.624;11.760;2023-06-14T03:23:02;8.40;;;7.20;;
71648;SDS011;70112;45.624;11.760;2023-06-14T03:25:28;9.00;;;6.50;;
71648;SDS011;70112;45.624;11.760;2023-06-14T03:27:57;6.80;;;6.20;;
71648;SDS011;70112;45.624;11.760;2023-06-14T03:30:23;7.00;;;6.30;;
71648;SDS011;70112;45.624;11.760;2023-06-14T03:32:49;7.50;;;6.70;;
71648;SDS011;70112;45.624;11.760;2023-06-14T03:35:17;10.10;;;7.20;;
71648;SDS011;70112;45.624;11.760;2023-06-14T03:37:46;9.70;;;7.00;;
71648;SDS011;70112;45.624;11.760;2023-06-14T03:40:14;8.40;;;6.60;;
71648;SDS011;70112;45.624;11.760;2023-06-14T03:42:41;7.10;;;6.40;;
71648;SDS011;70112;45.624;11.760;2023-06-14T03:45:07;10.50;;;6.60;;
71648;SDS011;70112;45.624;11.760;2023-06-14T03:47:34;8.30;;;6.10;;
71648;SDS011;70112;45.624;11.760;2023-06-14T03:50:00;8.10;;;6.20;;
71648;SDS011;70112;45.624;11.760;2023-06-14T03:52:27;6.40;;;5.80;;
71648;SDS011;70112;45.624;11.760;2023-06-14T03:54:52;7.30;;;5.70;;
71648;SDS011;70112;45.624;11.760;2023-06-14T03:57:18;8.60;;;5.80;;
71648;SDS011;70112;45.624;11.760;2023-06-14T03:59:44;8.30;;;5.80;;
71648;SDS011;70112;45.624;11.760;2023-06-14T04:02:09;8.10;;;6.40;;
71648;SDS011;70112;45.624;11.760;2023-06-14T04:04:36;8.60;;;6.10;;
71648;SDS011;70112;45.624;11.760;2023-06-14T04:07:02;7.70;;;6.20;;
71648;SDS011;70112;45.624;11.760;2023-06-14T04:09:29;7.90;;;5.70;;
71648;SDS011;70112;45.624;11.760;2023-06-14T04:11:55;6.70;;;6.00;;
71648;SDS011;70112;45.624;11.760;2023-06-14T04:14:21;6.90;;;5.60;;
71648;SDS011;70112;45.624;11.760;2023-06-14T04:16:48;7.50;;;5.50;;
71648;SDS011;70112;45.624;11.760;2023-06-14T04:19:15;9.10;;;6.00;;
71648;SDS011;70112;45.624;11.760;2023-06-14T04:21:41;9.30;;;5.70;;
71648;SDS011;70112;45.624;11.760;2023-06-14T04:24:07;6.40;;;5.60;;
71648;SDS011;70112;45.624;11.760;2023-06-14T04:26:38;5.80;;;5.20;;
71648;SDS011;70112;45.624;11.760;2023-06-14T04:29:05;5.80;;;4.80;;
71648;SDS011;70112;45.624;11.760;2023-06-14T04:31:31;6.10;;;4.70;;
71648;SDS011;70112;45.624;11.760;2023-06-14T04:34:02;7.90;;;4.50;;
71648;SDS011;70112;45.624;11.760;2023-06-14T04:36:32;5.00;;;4.50;;
71648;SDS011;70112;45.624;11.760;2023-06-14T04:39:00;5.30;;;4.60;;
71648;SDS011;70112;45.624;11.760;2023-06-14T04:41:32;6.20;;;4.60;;
71648;SDS011;70112;45.624;11.760;2023-06-14T04:43:59;9.10;;;5.30;;
71648;SDS011;70112;45.624;11.760;2023-06-14T04:46:29;6.10;;;4.50;;
71648;SDS011;70112;45.624;11.760;2023-06-14T04:48:57;6.00;;;4.40;;
71648;SDS011;70112;45.624;11.760;2023-06-14T04:51:28;9.90;;;4.60;;
71648;SDS011;70112;45.624;11.760;2023-06-14T04:53:58;5.60;;;4.80;;
71648;SDS011;70112;45.624;11.760;2023-06-14T04:56:26;5.50;;;4.40;;
71648;SDS011;70112;45.624;11.760;2023-06-14T04:58:52;12.10;;;4.60;;
71648;SDS011;70112;45.624;11.760;2023-06-14T05:01:19;6.00;;;3.80;;
71648;SDS011;70112;45.624;11.760;2023-06-14T05:03:46;6.00;;;3.90;;
71648;SDS011;70112;45.624;11.760;2023-06-14T05:06:14;5.60;;;4.20;;
71648;SDS011;70112;45.624;11.760;2023-06-14T05:08:41;52.30;;;6.60;;
71648;SDS011;70112;45.624;11.760;2023-06-14T05:11:06;67.50;;;7.30;;
71648;SDS011;70112;45.624;11.760;2023-06-14T05:13:32;15.00;;;4.70;;
71648;SDS011;70112;45.624;11.760;2023-06-14T05:15:58;6.50;;;4.40;;
71648;SDS011;70112;45.624;11.760;2023-06-14T05:18:24;5.60;;;4.00;;
71648;SDS011;70112;45.624;11.760;2023-06-14T05:20:50;7.20;;;4.10;;
71648;SDS011;70112;45.624;11.760;2023-06-14T05:23:16;5.00;;;4.10;;
71648;SDS011;70112;45.624;11.760;2023-06-14T05:25:45;7.00;;;4.30;;
71648;SDS011;70112;45.624;11.760;2023-06-14T05:28:11;5.80;;;4.50;;
71648;SDS011;70112;45.624;11.760;2023-06-14T05:30:38;6.30;;;4.60;;
71648;SDS011;70112;45.624;11.760;2023-06-14T05:33:04;5.90;;;4.40;;
71648;SDS011;70112;45.624;11.760;2023-06-14T05:35:30;4.60;;;4.20;;
71648;SDS011;70112;45.624;11.760;2023-06-14T05:37:55;5.30;;;4.10;;
71648;SDS011;70112;45.624;11.760;2023-06-14T05:40:21;7.60;;;4.10;;
71648;SDS011;70112;45.624;11.760;2023-06-14T05:42:47;4.30;;;3.90;;
71648;SDS011;70112;45.624;11.760;2023-06-14T05:45:12;7.40;;;4.70;;
71648;SDS011;70112;45.624;11.760;2023-06-14T05:47:39;5.30;;;3.90;;
71648;SDS011;70112;45.624;11.760;2023-06-14T05:50:05;6.70;;;4.50;;
71648;SDS011;70112;45.624;11.760;2023-06-14T05:52:31;6.70;;;4.00;;
71648;SDS011;70112;45.624;11.760;2023-06-14T05:54:56;5.50;;;4.30;;
71648;SDS011;70112;45.624;11.760;2023-06-14T05:57:22;6.90;;;4.10;;
71648;SDS011;70112;45.624;11.760;2023-06-14T05:59:47;4.70;;;3.70;;
71648;SDS011;70112;45.624;11.760;2023-06-14T06:02:12;8.20;;;4.00;;
71648;SDS011;70112;45.624;11.760;2023-06-14T06:04:38;5.60;;;4.00;;
71648;SDS011;70112;45.624;11.760;2023-06-14T06:07:04;5.70;;;4.00;;
71648;SDS011;70112;45.624;11.760;2023-06-14T06:09:30;5.70;;;3.80;;
71648;SDS011;70112;45.624;11.760;2023-06-14T06:11:56;4.70;;;3.90;;
71648;SDS011;70112;45.624;11.760;2023-06-14T06:14:21;5.90;;;4.10;;
71648;SDS011;70112;45.624;11.760;2023-06-14T06:16:47;5.50;;;3.60;;
71648;SDS011;70112;45.624;11.760;2023-06-14T06:19:12;4.70;;;3.70;;
71648;SDS011;70112;45.624;11.760;2023-06-14T06:21:38;6.40;;;4.00;;
71648;SDS011;70112;45.624;11.760;2023-06-14T06:24:05;6.30;;;3.60;;
71648;SDS011;70112;45.624;11.760;2023-06-14T06:26:31;4.20;;;3.70;;
71648;SDS011;70112;45.624;11.760;2023-06-14T06:29:00;4.00;;;3.50;;
71648;SDS011;70112;45.624;11.760;2023-06-14T06:31:25;5.20;;;3.70;;
71648;SDS011;70112;45.624;11.760;2023-06-14T06:33:52;4.30;;;3.00;;
71648;SDS011;70112;45.624;11.760;2023-06-14T06:36:21;3.60;;;3.20;;
71648;SDS011;70112;45.624;11.760;2023-06-14T06:38:47;3.70;;;3.00;;
71648;SDS011;70112;45.624;11.760;2023-06-14T06:41:13;5.00;;;2.90;;
71648;SDS011;70112;45.624;11.760;2023-06-14T06:43:39;5.00;;;3.20;;
71648;SDS011;70112;45.624;11.760;2023-06-14T06:46:04;4.90;;;3.00;;
71648;SDS011;70112;45.624;11.760;2023-06-14T06:48:30;3.10;;;2.80;;
71648;SDS011;70112;45.624;11.760;2023-06-14T06:50:56;4.20;;;2.90;;
71648;SDS011;70112;45.624;11.760;2023-06-14T06:53:21;6.00;;;2.90;;
71648;SDS011;70112;45.624;11.760;2023-06-14T06:55:47;4.10;;;3.30;;
71648;SDS011;70112;45.624;11.760;2023-06-14T06:58:14;3.60;;;3.20;;
71648;SDS011;70112;45.624;11.760;2023-06-14T07:00:40;3.50;;;3.20;;
71648;SDS011;70112;45.624;11.760;2023-06-14T07:03:06;3.20;;;2.90;;
71648;SDS011;70112;45.624;11.760;2023-06-14T07:05:32;4.90;;;3.40;;
71648;SDS011;70112;45.624;11.760;2023-06-14T07:07:58;6.10;;;3.20;;
71648;SDS011;70112;45.624;11.760;2023-06-14T07:10:24;5.10;;;3.30;;
71648;SDS011;70112;45.624;11.760;2023-06-14T07:12:50;4.50;;;3.10;;
71648;SDS011;70112;45.624;11.760;2023-06-14T07:15:15;4.50;;;3.10;;
71648;SDS011;70112;45.624;11.760;2023-06-14T07:17:41;6.50;;;2.90;;
71648;SDS011;70112;45.624;11.760;2023-06-14T07:20:08;4.50;;;2.80;;
71648;SDS011;70112;45.624;11.760;2023-06-14T07:22:39;3.40;;;2.80;;
71648;SDS011;70112;45.624;11.760;2023-06-14T07:25:08;3.00;;;2.70;;
71648;SDS011;70112;45.624;11.760;2023-06-14T07:27:43;4.80;;;2.90;;
71648;SDS011;70112;45.624;11.760;2023-06-14T07:30:10;4.90;;;3.10;;
71648;SDS011;70112;45.624;11.760;2023-06-14T07:32:36;5.20;;;3.10;;
71648;SDS011;70112;45.624;11.760;2023-06-14T07:35:02;5.30;;;3.30;;
71648;SDS011;70112;45.624;11.760;2023-06-14T07:37:28;5.50;;;3.30;;
71648;SDS011;70112;45.624;11.760;2023-06-14T07:39:54;4.70;;;3.40;;
71648;SDS011;70112;45.624;11.760;2023-06-14T07:42:19;5.10;;;3.60;;
71648;SDS011;70112;45.624;11.760;2023-06-14T07:44:45;5.10;;;4.10;;
71648;SDS011;70112;45.624;11.760;2023-06-14T07:47:10;7.00;;;3.60;;
71648;SDS011;70112;45.624;11.760;2023-06-14T07:49:36;7.50;;;4.00;;
71648;SDS011;70112;45.624;11.760;2023-06-14T07:52:01;6.40;;;4.30;;
71648;SDS011;70112;45.624;11.760;2023-06-14T07:54:26;5.10;;;4.10;;
71648;SDS011;70112;45.624;11.760;2023-06-14T07:56:53;5.70;;;4.20;;
71648;SDS011;70112;45.624;11.760;2023-06-14T07:59:18;5.30;;;4.20;;
71648;SDS011;70112;45.624;11.760;2023-06-14T08:01:43;5.50;;;4.60;;
71648;SDS011;70112;45.624;11.760;2023-06-14T08:04:13;5.20;;;4.30;;
71648;SDS011;70112;45.624;11.760;2023-06-14T08:06:39;4.10;;;3.60;;
71648;SDS011;70112;45.624;11.760;2023-06-14T08:09:04;4.50;;;4.10;;
71648;SDS011;70112;45.624;11.760;2023-06-14T08:11:31;9.00;;;4.50;;
71648;SDS011;70112;45.624;11.760;2023-06-14T08:13:56;9.80;;;3.80;;
71648;SDS011;70112;45.624;11.760;2023-06-14T08:16:22;6.00;;;4.20;;
71648;SDS011;70112;45.624;11.760;2023-06-14T08:18:48;7.10;;;4.40;;
71648;SDS011;70112;45.624;11.760;2023-06-14T08:21:14;6.10;;;4.20;;
71648;SDS011;70112;45.624;11.760;2023-06-14T08:23:40;8.30;;;4.50;;
71648;SDS011;70112;45.624;11.760;2023-06-14T08:26:08;6.90;;;4.20;;
71648;SDS011;70112;45.624;11.760;2023-06-14T08:28:34;8.70;;;4.20;;
71648;SDS011;70112;45.624;11.760;2023-06-14T08:31:02;6.50;;;3.50;;
71648;SDS011;70112;45.624;11.760;2023-06-14T08:33:34;6.10;;;3.70;;
71648;SDS011;70112;45.624;11.760;2023-06-14T08:36:00;5.60;;;4.10;;
71648;SDS011;70112;45.624;11.760;2023-06-14T08:38:25;8.70;;;4.10;;
71648;SDS011;70112;45.624;11.760;2023-06-14T08:40:52;5.60;;;3.60;;
71648;SDS011;70112;45.624;11.760;2023-06-14T08:43:18;6.90;;;3.80;;
71648;SDS011;70112;45.624;11.760;2023-06-14T08:45:46;5.40;;;3.90;;
71648;SDS011;70112;45.624;11.760;2023-06-14T08:48:14;6.00;;;3.50;;
71648;SDS011;70112;45.624;11.760;2023-06-14T08:50:43;4.70;;;4.20;;
71648;SDS011;70112;45.624;11.760;2023-06-14T08:53:11;9.00;;;3.80;;
71648;SDS011;70112;45.624;11.760;2023-06-14T08:55:45;5.70;;;3.60;;
71648;SDS011;70112;45.624;11.760;2023-06-14T08:58:10;4.60;;;3.70;;
71648;SDS011;70112;45.624;11.760;2023-06-14T09:00:39;5.10;;;3.70;;
71648;SDS011;70112;45.624;11.760;2023-06-14T09:03:08;5.10;;;4.10;;
71648;SDS011;70112;45.624;11.760;2023-06-14T09:05:38;6.40;;;3.60;;
71648;SDS011;70112;45.624;11.760;2023-06-14T09:08:04;5.20;;;3.70;;
71648;SDS011;70112;45.624;11.760;2023-06-14T09:10:31;4.50;;;4.00;;
71648;SDS011;70112;45.624;11.760;2023-06-14T09:13:00;4.30;;;3.80;;
71648;SDS011;70112;45.624;11.760;2023-06-14T09:15:26;5.30;;;4.10;;
71648;SDS011;70112;45.624;11.760;2023-06-14T09:17:53;5.20;;;4.10;;
71648;SDS011;70112;45.624;11.760;2023-06-14T09:20:18;8.00;;;4.10;;
71648;SDS011;70112;45.624;11.760;2023-06-14T09:22:44;7.60;;;3.80;;
71648;SDS011;70112;45.624;11.760;2023-06-14T09:25:10;5.50;;;4.00;;
71648;SDS011;70112;45.624;11.760;2023-06-14T09:27:37;4.70;;;4.10;;
71648;SDS011;70112;45.624;11.760;2023-06-14T09:30:10;8.30;;;4.20;;
71648;SDS011;70112;45.624;11.760;2023-06-14T09:32:37;6.20;;;4.50;;
71648;SDS011;70112;45.624;11.760;2023-06-14T09:35:08;5.20;;;4.30;;
71648;SDS011;70112;45.624;11.760;2023-06-14T09:37:34;5.40;;;4.60;;
71648;SDS011;70112;45.624;11.760;2023-06-14T09:40:03;5.90;;;4.10;;
71648;SDS011;70112;45.624;11.760;2023-06-14T09:42:29;4.80;;;3.90;;
71648;SDS011;70112;45.624;11.760;2023-06-14T09:44:56;5.60;;;3.80;;
71648;SDS011;70112;45.624;11.760;2023-06-14T09:47:23;10.10;;;4.30;;
71648;SDS011;70112;45.624;11.760;2023-06-14T09:49:51;7.70;;;3.90;;
71648;SDS011;70112;45.624;11.760;2023-06-14T09:52:20;4.50;;;3.90;;
71648;SDS011;70112;45.624;11.760;2023-06-14T09:54:47;4.40;;;3.80;;
71648;SDS011;70112;45.624;11.760;2023-06-14T09:57:16;4.90;;;3.70;;
71648;SDS011;70112;45.624;11.760;2023-06-14T09:59:46;7.60;;;4.10;;
71648;SDS011;70112;45.624;11.760;2023-06-14T10:02:24;6.00;;;3.90;;
71648;SDS011;70112;45.624;11.760;2023-06-14T10:04:58;4.30;;;3.80;;
71648;SDS011;70112;45.624;11.760;2023-06-14T10:07:32;4.70;;;4.00;;
71648;SDS011;70112;45.624;11.760;2023-06-14T10:10:01;5.80;;;3.60;;
71648;SDS011;70112;45.624;11.760;2023-06-14T10:12:27;5.20;;;3.80;;
71648;SDS011;70112;45.624;11.760;2023-06-14T10:14:53;8.00;;;4.00;;
71648;SDS011;70112;45.624;11.760;2023-06-14T10:17:31;6.70;;;4.20;;
71648;SDS011;70112;45.624;11.760;2023-06-14T10:20:14;4.40;;;3.70;;
71648;SDS011;70112;45.624;11.760;2023-06-14T10:23:13;4.40;;;3.90;;
71648;SDS011;70112;45.624;11.760;2023-06-14T10:25:43;4.40;;;4.00;;
71648;SDS011;70112;45.624;11.760;2023-06-14T10:28:16;4.80;;;3.70;;
71648;SDS011;70112;45.624;11.760;2023-06-14T10:31:03;7.00;;;4.30;;
71648;SDS011;70112;45.624;11.760;2023-06-14T10:33:30;4.60;;;4.20;;
71648;SDS011;70112;45.624;11.760;2023-06-14T10:36:30;7.30;;;4.50;;
71648;SDS011;70112;45.624;11.760;2023-06-14T10:41:27;10.80;;;4.40;;
71648;SDS011;70112;45.624;11.760;2023-06-14T10:44:30;13.00;;;4.40;;
71648;SDS011;70112;45.624;11.760;2023-06-14T10:49:40;6.30;;;3.80;;
71648;SDS011;70112;45.624;11.760;2023-06-14T10:52:14;6.00;;;4.00;;
71648;SDS011;70112;45.624;11.760;2023-06-14T10:55:03;6.40;;;3.70;;
71648;SDS011;70112;45.624;11.760;2023-06-14T10:57:39;10.30;;;4.10;;
71648;SDS011;70112;45.624;11.760;2023-06-14T11:00:27;6.60;;;3.30;;
71648;SDS011;70112;45.624;11.760;2023-06-14T11:05:57;4.30;;;3.20;;
71648;SDS011;70112;45.624;11.760;2023-06-14T11:11:12;4.90;;;3.50;;
71648;SDS011;70112;45.624;11.760;2023-06-14T11:13:41;5.30;;;3.90;;
71648;SDS011;70112;45.624;11.760;2023-06-14T11:16:15;4.80;;;3.70;;
71648;SDS011;70112;45.624;11.760;2023-06-14T11:18:41;7.60;;;4.00;;
71648;SDS011;70112;45.624;11.760;2023-06-14T11:21:08;4.70;;;4.10;;
71648;SDS011;70112;45.624;11.760;2023-06-14T11:23:36;5.40;;;3.80;;
71648;SDS011;70112;45.624;11.760;2023-06-14T11:26:02;7.90;;;4.40;;
71648;SDS011;70112;45.624;11.760;2023-06-14T11:28:39;6.30;;;3.80;;
71648;SDS011;70112;45.624;11.760;2023-06-14T11:31:07;5.60;;;3.70;;
71648;SDS011;70112;45.624;11.760;2023-06-14T11:33:33;4.10;;;3.70;;
71648;SDS011;70112;45.624;11.760;2023-06-14T11:36:02;14.10;;;4.10;;
71648;SDS011;70112;45.624;11.760;2023-06-14T11:38:29;7.20;;;3.70;;
71648;SDS011;70112;45.624;11.760;2023-06-14T11:40:58;4.40;;;3.70;;
71648;SDS011;70112;45.624;11.760;2023-06-14T11:43:25;7.10;;;3.80;;
71648;SDS011;70112;45.624;11.760;2023-06-14T11:45:52;5.60;;;3.60;;
71648;SDS011;70112;45.624;11.760;2023-06-14T11:48:18;5.20;;;4.10;;
71648;SDS011;70112;45.624;11.760;2023-06-14T11:50:44;13.30;;;4.20;;
71648;SDS011;70112;45.624;11.760;2023-06-14T11:53:09;7.40;;;4.10;;
71648;SDS011;70112;45.624;11.760;2023-06-14T11:55:37;5.40;;;3.90;;
71648;SDS011;70112;45.624;11.760;2023-06-14T11:58:03;7.30;;;3.80;;
71648;SDS011;70112;45.624;11.760;2023-06-14T12:00:28;5.40;;;4.00;;
71648;SDS011;70112;45.624;11.760;2023-06-14T12:02:54;8.30;;;4.00;;
71648;SDS011;70112;45.624;11.760;2023-06-14T12:05:21;9.30;;;4.50;;
71648;SDS011;70112;45.624;11.760;2023-06-14T12:07:47;10.70;;;3.90;;
71648;SDS011;70112;45.624;11.760;2023-06-14T12:10:14;4.20;;;3.80;;
71648;SDS011;70112;45.624;11.760;2023-06-14T12:12:40;4.90;;;3.90;;
71648;SDS011;70112;45.624;11.760;2023-06-14T12:15:08;5.30;;;3.60;;
71648;SDS011;70112;45.624;11.760;2023-06-14T12:17:36;4.70;;;4.00;;
71648;SDS011;70112;45.624;11.760;2023-06-14T12:20:08;6.60;;;4.50;;
71648;SDS011;70112;45.624;11.760;2023-06-14T12:22:36;5.40;;;4.10;;
71648;SDS011;70112;45.624;11.760;2023-06-14T12:25:03;4.40;;;3.90;;
71648;SDS011;70112;45.624;11.760;2023-06-14T12:27:30;8.30;;;3.70;;
71648;SDS011;70112;45.624;11.760;2023-06-14T12:29:59;6.60;;;4.30;;
71648;SDS011;70112;45.624;11.760;2023-06-14T12:32:29;8.20;;;4.00;;
71648;SDS011;70112;45.624;11.760;2023-06-14T12:34:55;6.20;;;4.00;;
71648;SDS011;70112;45.624;11.760;2023-06-14T12:37:20;7.40;;;4.20;;
71648;SDS011;70112;45.624;11.760;2023-06-14T12:39:46;6.70;;;3.90;;
71648;SDS011;70112;45.624;11.760;2023-06-14T12:42:12;5.20;;;4.20;;
71648;SDS011;70112;45.624;11.760;2023-06-14T12:44:39;5.50;;;4.00;;
71648;SDS011;70112;45.624;11.760;2023-06-14T12:47:06;5.40;;;4.20;;
71648;SDS011;70112;45.624;11.760;2023-06-14T12:49:32;13.30;;;4.50;;
71648;SDS011;70112;45.624;11.760;2023-06-14T12:51:58;5.00;;;4.00;;
71648;SDS011;70112;45.624;11.760;2023-06-14T12:54:24;7.70;;;4.20;;
71648;SDS011;70112;45.624;11.760;2023-06-14T12:56:53;5.40;;;4.30;;
71648;SDS011;70112;45.624;11.760;2023-06-14T12:59:20;8.00;;;4.40;;
71648;SDS011;70112;45.624;11.760;2023-06-14T13:01:45;5.20;;;4.40;;
71648;SDS011;70112;45.624;11.760;2023-06-14T13:04:12;4.60;;;4.10;;
71648;SDS011;70112;45.624;11.760;2023-06-14T13:06:38;14.20;;;4.50;;
71648;SDS011;70112;45.624;11.760;2023-06-14T13:09:03;5.00;;;4.50;;
71648;SDS011;70112;45.624;11.760;2023-06-14T13:11:29;7.30;;;4.00;;
71648;SDS011;70112;45.624;11.760;2023-06-14T13:13:55;5.40;;;4.50;;
71648;SDS011;70112;45.624;11.760;2023-06-14T13:16:21;7.70;;;4.20;;
71648;SDS011;70112;45.624;11.760;2023-06-14T13:18:46;6.90;;;4.50;;
71648;SDS011;70112;45.624;11.760;2023-06-14T13:21:12;7.60;;;4.10;;
71648;SDS011;70112;45.624;11.760;2023-06-14T13:23:37;6.60;;;3.90;;
71648;SDS011;70112;45.624;11.760;2023-06-14T13:26:03;4.00;;;3.60;;
71648;SDS011;70112;45.624;11.760;2023-06-14T13:28:28;7.30;;;4.00;;
71648;SDS011;70112;45.624;11.760;2023-06-14T13:30:53;4.60;;;4.20;;
71648;SDS011;70112;45.624;11.760;2023-06-14T13:33:21;5.10;;;4.00;;
71648;SDS011;70112;45.624;11.760;2023-06-14T13:35:46;5.30;;;4.30;;
71648;SDS011;70112;45.624;11.760;2023-06-14T13:38:14;5.80;;;4.30;;
71648;SDS011;70112;45.624;11.760;2023-06-14T13:40:40;7.70;;;4.20;;
71648;SDS011;70112;45.624;11.760;2023-06-14T13:43:06;8.00;;;3.90;;
71648;SDS011;70112;45.624;11.760;2023-06-14T13:45:31;5.60;;;3.70;;
71648;SDS011;70112;45.624;11.760;2023-06-14T13:47:57;5.50;;;4.00;;
71648;SDS011;70112;45.624;11.760;2023-06-14T13:50:22;5.00;;;3.80;;
71648;SDS011;70112;45.624;11.760;2023-06-14T13:52:48;18.30;;;4.90;;
71648;SDS011;70112;45.624;11.760;2023-06-14T13:55:13;6.50;;;4.30;;
71648;SDS011;70112;45.624;11.760;2023-06-14T13:57:39;9.00;;;4.60;;
71648;SDS011;70112;45.624;11.760;2023-06-14T14:00:05;6.20;;;4.40;;
71648;SDS011;70112;45.624;11.760;2023-06-14T14:02:31;6.70;;;3.90;;
71648;SDS011;70112;45.624;11.760;2023-06-14T14:04:57;7.50;;;4.40;;
71648;SDS011;70112;45.624;11.760;2023-06-14T14:07:22;8.40;;;4.10;;
71648;SDS011;70112;45.624;11.760;2023-06-14T14:09:48;6.80;;;4.10;;
71648;SDS011;70112;45.624;11.760;2023-06-14T14:12:14;6.10;;;4.00;;
71648;SDS011;70112;45.624;11.760;2023-06-14T14:14:40;14.20;;;4.30;;
71648;SDS011;70112;45.624;11.760;2023-06-14T14:17:05;10.40;;;3.90;;
71648;SDS011;70112;45.624;11.760;2023-06-14T14:19:32;5.50;;;3.90;;
71648;SDS011;70112;45.624;11.760;2023-06-14T14:21:58;6.90;;;4.00;;
71648;SDS011;70112;45.624;11.760;2023-06-14T14:24:23;9.80;;;4.90;;
71648;SDS011;70112;45.624;11.760;2023-06-14T14:26:49;9.40;;;4.00;;
71648;SDS011;70112;45.624;11.760;2023-06-14T14:29:15;5.70;;;3.90;;
71648;SDS011;70112;45.624;11.760;2023-06-14T14:31:42;7.80;;;4.80;;
71648;SDS011;70112;45.624;11.760;2023-06-14T14:34:07;9.00;;;5.00;;
71648;SDS011;70112;45.624;11.760;2023-06-14T14:36:33;8.90;;;4.30;;
71648;SDS011;70112;45.624;11.760;2023-06-14T14:39:01;5.30;;;4.30;;
71648;SDS011;70112;45.624;11.760;2023-06-14T14:41:27;4.90;;;4.40;;
71648;SDS011;70112;45.624;11.760;2023-06-14T14:43:53;6.50;;;4.10;;
71648;SDS011;70112;45.624;11.760;2023-06-14T14:46:18;5.70;;;4.20;;
71648;SDS011;70112;45.624;11.760;2023-06-14T14:48:44;5.20;;;3.90;;
71648;SDS011;70112;45.624;11.760;2023-06-14T14:51:09;7.60;;;4.60;;
71648;SDS011;70112;45.624;11.760;2023-06-14T14:53:35;5.80;;;4.80;;